Time;durP1;ratioP1;P1;durP2;ratioP2;P2;SDS_P1;SDS_P2;PMS_P1;PMS_P2;Temp;Humidity;BMP_temperature;BMP_pressure;BME280_temperature;BME280_humidity;BME280_pressure;Samples;Min_cycle;Max_cycle;Signal;HPM_P1;HPM_P2
2021/01/12 00:00:40;;;;;;;97.30;34.40;;;;;;;-7.44;100.00;99140.36;4243153;82;44091;-76
2021/01/12 00:06:43;;;;;;;93.17;34.95;;;;;;;-7.43;100.00;99137.30;4282976;80;44281;-77
2021/01/12 00:12:46;;;;;;;99.95;37.50;;;;;;;-7.42;100.00;99129.32;4339305;80;44444;-77
2021/01/12 00:18:48;;;;;;;101.33;36.13;;;;;;;-7.40;100.00;99116.62;4353574;79;43616;-78
2021/01/12 00:24:51;;;;;;;96.67;35.95;;;;;;;-7.32;100.00;99119.04;4410530;78;44293;-76
2021/01/12 00:30:53;;;;;;;102.55;37.90;;;;;;;-7.39;100.00;99112.59;4393251;78;43722;-77
2021/01/12 00:36:56;;;;;;;111.62;39.05;;;;;;;-7.45;100.00;99113.89;4316004;81;44582;-77
2021/01/12 00:42:58;;;;;;;128.25;44.35;;;;;;;-7.57;100.00;99113.48;4250743;81;44239;-77
2021/01/12 00:49:00;;;;;;;114.25;40.73;;;;;;;-7.51;100.00;99114.81;4250384;81;44941;-76
2021/01/12 00:55:03;;;;;;;115.62;41.45;;;;;;;-7.61;100.00;99125.09;4312036;81;44590;-76
2021/01/12 01:01:05;;;;;;;129.45;45.03;;;;;;;-7.73;100.00;99122.92;4306076;81;44276;-77
2021/01/12 01:07:07;;;;;;;121.13;44.05;;;;;;;-7.59;100.00;99112.28;4270915;81;43979;-77
2021/01/12 01:13:09;;;;;;;124.00;43.52;;;;;;;-7.63;100.00;99095.19;4299564;81;43936;-77
2021/01/12 01:19:12;;;;;;;129.57;44.18;;;;;;;-7.87;100.00;99085.58;4332666;80;44267;-77
2021/01/12 01:25:14;;;;;;;132.43;43.73;;;;;;;-7.84;100.00;99085.83;4220344;83;44304;-77
2021/01/12 01:31:17;;;;;;;134.90;44.05;;;;;;;-7.89;100.00;99077.03;4326357;80;44281;-77
2021/01/12 01:37:19;;;;;;;125.00;42.73;;;;;;;-7.81;100.00;99077.77;4246650;83;43946;-76
2021/01/12 01:43:21;;;;;;;125.47;44.63;;;;;;;-8.14;100.00;99073.60;4315788;80;44025;-76
2021/01/12 01:49:24;;;;;;;114.42;40.92;;;;;;;-8.06;100.00;99063.09;4324013;80;44611;-77
2021/01/12 01:55:27;;;;;;;119.62;42.05;;;;;;;-8.06;100.00;99057.88;4235872;81;44620;-75
2021/01/12 02:01:29;;;;;;;124.18;42.10;;;;;;;-8.06;100.00;99050.86;4311398;80;43934;-77
2021/01/12 02:07:31;;;;;;;121.80;41.08;;;;;;;-8.07;100.00;99049.20;4254262;81;44603;-77
2021/01/12 02:13:33;;;;;;;113.10;40.05;;;;;;;-8.18;100.00;99040.02;4300430;80;44622;-76
2021/01/12 02:19:38;;;;;;;115.92;40.63;;;;;;;-8.14;100.00;99031.01;4309502;80;44626;-75
2021/01/12 02:25:40;;;;;;;109.07;40.00;;;;;;;-8.21;100.00;99021.49;4273040;81;44273;-75
2021/01/12 02:31:44;;;;;;;101.92;37.40;;;;;;;-8.19;100.00;99018.30;4253978;82;43434;-75
2021/01/12 02:37:47;;;;;;;118.55;37.93;;;;;;;-8.21;100.00;98999.81;4321171;82;44677;-75
2021/01/12 02:43:50;;;;;;;115.70;38.15;;;;;;;-8.26;100.00;98998.84;4278425;81;44678;-75
2021/01/12 02:49:52;;;;;;;118.87;37.90;;;;;;;-8.18;100.00;98983.44;4294998;82;44651;-75
2021/01/12 02:55:54;;;;;;;110.97;37.50;;;;;;;-8.16;100.00;98968.52;4364921;80;44266;-75
2021/01/12 03:01:56;;;;;;;101.53;36.53;;;;;;;-8.31;100.00;98963.11;4384331;80;43837;-74
2021/01/12 03:07:59;;;;;;;106.07;35.85;;;;;;;-8.29;100.00;98953.39;4370739;79;43545;-75
2021/01/12 03:14:01;;;;;;;94.95;34.43;;;;;;;-8.34;100.00;98949.00;4382948;80;44091;-74
2021/01/12 03:20:05;;;;;;;108.07;36.28;;;;;;;-8.16;100.00;98932.45;4393459;79;43588;-76
2021/01/12 03:26:07;;;;;;;102.35;35.08;;;;;;;-8.46;100.00;98920.27;4409136;78;44268;-76
2021/01/12 03:32:09;;;;;;;91.17;32.75;;;;;;;-8.32;100.00;98907.52;4404080;79;44086;-77
2021/01/12 03:38:11;;;;;;;91.30;31.55;;;;;;;-8.43;100.00;98902.27;4304457;81;44169;-78
2021/01/12 03:44:13;;;;;;;91.35;31.60;;;;;;;-8.36;100.00;98885.20;4275843;81;44138;-77
2021/01/12 03:50:15;;;;;;;89.17;32.53;;;;;;;-8.64;100.00;98878.62;4291459;82;44138;-77
2021/01/12 03:56:18;;;;;;;82.70;29.10;;;;;;;-8.74;100.00;98871.47;4270350;82;42960;-76
2021/01/12 04:02:21;;;;;;;79.65;27.87;;;;;;;-8.75;100.00;98867.20;4321926;82;43845;-76
2021/01/12 04:08:25;;;;;;;74.82;26.23;;;;;;;-8.71;100.00;98863.41;4303176;80;28591;-76
2021/01/12 04:14:27;;;;;;;83.37;28.83;;;;;;;-8.67;100.00;98852.78;4343247;82;43088;-77
2021/01/12 04:20:29;;;;;;;77.85;26.42;;;;;;;-8.55;100.00;98851.88;4250201;82;43678;-77
2021/01/12 04:26:31;;;;;;;76.95;26.30;;;;;;;-8.67;100.00;98839.27;4291251;80;43557;-77
2021/01/12 04:32:35;;;;;;;81.03;28.03;;;;;;;-8.87;100.00;98831.61;4292784;82;28619;-75
2021/01/12 04:38:37;;;;;;;85.00;28.35;;;;;;;-8.88;100.00;98818.23;4246749;83;43222;-76
2021/01/12 04:44:39;;;;;;;66.62;25.37;;;;;;;-8.80;100.00;98812.45;4236845;83;43733;-76
2021/01/12 04:50:42;;;;;;;65.57;24.25;;;;;;;-8.88;100.00;98807.80;4312542;82;43780;-76
2021/01/12 04:56:44;;;;;;;69.97;24.35;;;;;;;-8.91;100.00;98798.89;4327461;81;43778;-76
2021/01/12 05:03:07;;;;;;;63.90;24.18;;;;;;;-8.89;100.00;98777.48;4280786;81;43761;-76
2021/01/12 05:09:11;;;;;;;72.75;24.05;;;;;;;-8.97;100.00;98764.53;4290211;82;44436;-78
2021/01/12 05:15:16;;;;;;;75.32;26.20;;;;;;;-8.98;100.00;98768.09;4267821;83;43570;-77
2021/01/12 05:21:19;;;;;;;76.55;25.45;;;;;;;-8.85;100.00;98771.09;4233779;81;44060;-77
2021/01/12 05:27:23;;;;;;;70.28;24.75;;;;;;;-8.70;100.00;98760.00;4252455;83;44148;-77
2021/01/12 05:33:28;;;;;;;68.28;25.05;;;;;;;-8.75;100.00;98751.67;4302195;82;28550;-77
2021/01/12 05:39:40;;;;;;;81.07;28.47;;;;;;;-8.88;100.00;98752.59;4262574;83;28551;-77
2021/01/12 05:45:44;;;;;;;77.35;26.07;;;;;;;-8.65;100.00;98742.22;4308419;81;42978;-77
2021/01/12 05:51:48;;;;;;;75.32;26.60;;;;;;;-8.92;100.00;98736.00;4277116;83;43843;-77
2021/01/12 05:57:54;;;;;;;75.90;26.90;;;;;;;-8.94;100.00;98732.68;4317197;80;28611;-77
2021/01/12 06:03:57;;;;;;;74.62;27.37;;;;;;;-8.91;100.00;98710.30;4235364;83;44095;-77
2021/01/12 06:10:01;;;;;;;76.87;26.82;;;;;;;-8.89;100.00;98705.83;4246861;82;43736;-80
2021/01/12 06:16:07;;;;;;;73.72;25.68;;;;;;;-8.96;100.00;98701.52;4262039;83;44433;-75
2021/01/12 06:22:20;;;;;;;77.00;26.30;;;;;;;-8.82;100.00;98684.39;4263773;81;43558;-75
2021/01/12 06:28:22;;;;;;;81.15;27.90;;;;;;;-8.91;100.00;98680.33;4252873;81;43777;-75
2021/01/12 06:34:24;;;;;;;80.30;28.20;;;;;;;-8.77;100.00;98679.30;4302534;82;44103;-75
2021/01/12 06:40:29;;;;;;;73.15;25.75;;;;;;;-8.91;100.00;98670.75;4241734;82;43611;-75
2021/01/12 06:46:33;;;;;;;70.53;26.33;;;;;;;-8.74;100.00;98669.47;4315403;82;28571;-75
2021/01/12 06:52:47;;;;;;;74.60;27.55;;;;;;;-8.77;100.00;98670.17;4248007;81;44052;-75
2021/01/12 06:58:49;;;;;;;56.17;19.60;;;;;;;-8.77;100.00;98665.80;4339140;80;28548;-75
2021/01/12 07:05:09;;;;;;;74.12;26.75;;;;;;;-8.51;100.00;98658.23;4342071;81;43951;-75
2021/01/12 07:11:13;;;;;;;80.65;28.20;;;;;;;-8.65;100.00;98650.17;4270936;81;43797;-75
2021/01/12 07:17:30;;;;;;;77.60;27.93;;;;;;;-8.26;100.00;98644.09;4269478;81;28570;-75
2021/01/12 07:23:33;;;;;;;78.07;27.60;;;;;;;-8.30;100.00;98642.66;4284740;82;43819;-75
2021/01/12 07:29:55;;;;;;;74.37;27.30;;;;;;;-8.10;100.00;98633.73;4271052;82;44111;-75
2021/01/12 07:35:59;;;;;;;75.97;29.25;;;;;;;-8.12;100.00;98624.25;4311742;80;44117;-74
2021/01/12 07:42:02;;;;;;;73.50;27.70;;;;;;;-7.84;100.00;98616.84;4233968;81;28596;-75
2021/01/12 07:48:06;;;;;;;81.22;27.75;;;;;;;-7.66;100.00;98607.14;4309231;80;43758;-75
2021/01/12 07:54:09;;;;;;;54.10;19.77;;;;;;;-7.48;100.00;98595.69;4261203;82;28666;-75
2021/01/12 08:00:15;;;;;;;81.63;28.50;;;;;;;-7.10;100.00;98588.22;4346454;80;43774;-75
2021/01/12 08:06:18;;;;;;;76.87;29.00;;;;;;;-6.82;100.00;98588.51;4316656;81;44093;-75
2021/01/12 08:12:21;;;;;;;85.00;30.05;;;;;;;-6.68;100.00;98582.08;4296629;82;43476;-74
2021/01/12 08:18:23;;;;;;;76.82;28.75;;;;;;;-6.31;100.00;98558.44;4255479;83;43659;-74
2021/01/12 08:24:26;;;;;;;81.95;28.45;;;;;;;-6.14;100.00;98549.59;4235200;83;43790;-74
2021/01/12 08:30:32;;;;;;;70.08;26.33;;;;;;;-6.04;100.00;98551.27;4367477;80;43896;-74
2021/01/12 08:36:37;;;;;;;69.12;27.32;;;;;;;-5.86;100.00;98534.02;4379213;80;44087;-75
2021/01/12 08:42:41;;;;;;;76.87;28.55;;;;;;;-5.63;100.00;98524.89;4462604;79;43828;-74
2021/01/12 08:48:51;;;;;;;75.63;28.13;;;;;;;-5.26;100.00;98518.53;4392111;80;28627;-74
2021/01/12 08:54:55;;;;;;;71.35;28.92;;;;;;;-5.00;100.00;98513.98;4376354;80;44132;-75
2021/01/12 09:00:59;;;;;;;70.60;27.95;;;;;;;-4.73;100.00;98497.43;4385559;80;44156;-75
2021/01/12 09:07:07;;;;;;;73.35;28.02;;;;;;;-4.48;100.00;98494.59;4417522;79;28549;-75
2021/01/12 09:13:10;;;;;;;77.90;30.12;;;;;;;-4.21;100.00;98488.12;4393675;80;43765;-75
2021/01/12 09:19:15;;;;;;;65.47;26.90;;;;;;;-3.94;100.00;98490.35;4366767;81;43367;-75
2021/01/12 09:25:24;;;;;;;68.65;26.80;;;;;;;-3.73;100.00;98488.70;4365482;80;44091;-75
2021/01/12 09:31:27;;;;;;;76.82;29.40;;;;;;;-3.46;100.00;98472.95;4351500;79;43387;-73
2021/01/12 09:37:29;;;;;;;83.78;31.75;;;;;;;-3.21;100.00;98467.34;4381173;81;43081;-73
2021/01/12 09:43:32;;;;;;;81.90;31.87;;;;;;;-2.94;100.00;98453.16;4360635;79;43042;-73
2021/01/12 09:49:35;;;;;;;80.50;31.60;;;;;;;-2.78;100.00;98448.95;4324451;81;42677;-76
2021/01/12 09:55:37;;;;;;;73.30;27.73;;;;;;;-2.56;100.00;98442.25;4357306;81;44089;-76
2021/01/12 10:01:41;;;;;;;66.07;27.58;;;;;;;-2.32;100.00;98426.19;4359168;81;43394;-76
2021/01/12 10:07:43;;;;;;;69.87;28.45;;;;;;;-1.89;100.00;98412.84;4373832;79;44081;-77
2021/01/12 10:13:46;;;;;;;57.65;24.60;;;;;;;-1.44;100.00;98405.86;4358544;79;44187;-76
2021/01/12 10:19:49;;;;;;;51.65;21.23;;;;;;;-0.88;100.00;98397.06;4355347;81;43832;-76
2021/01/12 10:25:52;;;;;;;53.52;21.35;;;;;;;-0.55;100.00;98384.98;4311599;81;44113;-75
2021/01/12 10:31:54;;;;;;;44.15;19.17;;;;;;;-0.25;100.00;98366.61;4226990;83;43784;-75
2021/01/12 10:37:57;;;;;;;34.95;13.68;;;;;;;-0.03;100.00;98353.05;4310294;82;44428;-76
2021/01/12 10:43:59;;;;;;;31.75;13.83;;;;;;;0.18;100.00;98340.13;4307102;82;44157;-77
2021/01/12 10:50:03;;;;;;;33.92;14.98;;;;;;;0.39;100.00;98319.06;4257370;83;44227;-76
2021/01/12 10:56:05;;;;;;;37.33;16.65;;;;;;;0.67;100.00;98310.97;4240707;82;44439;-76
2021/01/12 11:02:08;;;;;;;43.33;18.12;;;;;;;0.78;100.00;98299.93;4230243;82;43732;-76
2021/01/12 11:08:11;;;;;;;45.25;19.95;;;;;;;0.95;100.00;98285.13;4235105;83;43733;-76
2021/01/12 11:14:18;;;;;;;32.50;14.60;;;;;;;1.07;100.00;98270.91;4279195;82;44113;-75
2021/01/12 11:20:21;;;;;;;33.30;13.45;;;;;;;1.21;100.00;98267.89;4275456;82;44181;-76
2021/01/12 11:26:30;;;;;;;21.70;9.58;;;;;;;1.34;100.00;98265.36;4303379;82;43930;-75
2021/01/12 11:32:33;;;;;;;14.43;4.83;;;;;;;1.53;100.00;98253.27;4346122;81;43913;-74
2021/01/12 11:38:35;;;;;;;10.55;4.47;;;;;;;1.72;100.00;98240.86;4292987;81;28649;-76
2021/01/12 11:44:38;;;;;;;11.22;4.95;;;;;;;1.83;100.00;98224.45;4275096;81;43210;-78
2021/01/12 11:50:42;;;;;;;9.88;4.10;;;;;;;2.01;100.00;98220.45;4296048;83;28672;-81
2021/01/12 11:56:56;;;;;;;11.78;4.03;;;;;;;2.14;100.00;98213.08;4295442;83;28554;-80
2021/01/12 12:02:59;;;;;;;8.65;3.90;;;;;;;2.31;100.00;98193.17;4275820;83;28592;-81
2021/01/12 12:09:02;;;;;;;6.58;3.05;;;;;;;2.39;100.00;98188.69;4267842;83;28553;-78
2021/01/12 12:15:06;;;;;;;6.50;3.08;;;;;;;2.45;100.00;98176.80;4262269;83;28580;-78
2021/01/12 12:21:16;;;;;;;6.67;2.92;;;;;;;2.63;98.22;98155.48;4246569;83;28583;-81
2021/01/12 12:27:20;;;;;;;7.78;3.02;;;;;;;2.69;96.79;98148.05;4268454;81;28958;-83
2021/01/12 12:33:22;;;;;;;7.12;2.55;;;;;;;2.65;93.88;98146.31;4255756;81;28640;-80
2021/01/12 12:39:25;;;;;;;8.28;3.42;;;;;;;2.65;94.50;98136.19;4261821;81;28689;-81
2021/01/12 12:45:28;;;;;;;6.47;3.05;;;;;;;2.71;96.79;98134.06;4236958;83;28649;-79
2021/01/12 12:51:30;;;;;;;9.93;3.12;;;;;;;2.69;98.69;98124.66;4272535;81;28601;-81
2021/01/12 12:57:34;;;;;;;7.80;3.52;;;;;;;2.64;97.68;98119.47;4377389;79;28618;-81
2021/01/12 13:03:40;;;;;;;9.95;3.62;;;;;;;2.62;96.56;98114.05;4402326;79;28584;-80
2021/01/12 13:09:42;;;;;;;8.20;3.27;;;;;;;2.52;93.31;98115.78;4319842;81;28548;-79
2021/01/12 13:15:46;;;;;;;8.73;3.50;;;;;;;2.51;92.50;98103.01;4391586;80;28582;-81
2021/01/12 13:21:55;;;;;;;8.60;3.22;;;;;;;2.52;93.01;98093.22;4398696;80;29012;-81
2021/01/12 13:28:01;;;;;;;8.28;3.22;;;;;;;2.53;94.47;98086.06;4336396;81;28639;-81
2021/01/12 13:34:03;;;;;;;9.13;3.95;;;;;;;2.46;93.97;98078.93;4342080;80;28579;-81
2021/01/12 13:40:07;;;;;;;9.65;3.83;;;;;;;2.44;95.04;98074.31;4359984;80;28595;-75
2021/01/12 13:46:10;;;;;;;10.68;3.83;;;;;;;2.41;92.12;98064.64;4386710;79;28562;-77
2021/01/12 13:52:19;;;;;;;11.53;4.17;;;;;;;2.37;92.71;98057.59;4430267;80;28606;-80
2021/01/12 13:58:24;;;;;;;9.20;3.58;;;;;;;2.32;93.02;98048.91;4439120;79;28569;-79
2021/01/12 14:04:27;;;;;;;11.13;3.67;;;;;;;2.30;92.33;98039.02;4396494;80;28585;-78
2021/01/12 14:10:29;;;;;;;14.23;4.15;;;;;;;2.30;94.26;98036.36;4400984;79;28576;-76
2021/01/12 14:16:33;;;;;;;12.37;4.30;;;;;;;2.19;96.10;98032.45;4259306;82;28576;-76
2021/01/12 14:22:40;;;;;;;8.90;4.03;;;;;;;2.14;95.51;98022.14;4288341;82;28623;-78
2021/01/12 14:28:46;;;;;;;8.80;4.05;;;;;;;2.13;96.14;98005.93;4252846;83;28558;-80
2021/01/12 14:34:49;;;;;;;10.98;3.80;;;;;;;2.12;94.85;98002.45;4263112;81;28565;-78
2021/01/12 14:40:54;;;;;;;8.30;3.62;;;;;;;2.12;94.94;97993.69;4309930;81;28602;-78
2021/01/12 14:46:59;;;;;;;10.48;4.35;;;;;;;2.08;93.33;97986.15;4250183;81;28629;-78
2021/01/12 14:53:02;;;;;;;13.40;4.62;;;;;;;2.12;95.61;97979.11;4282977;81;46178;-78
2021/01/12 14:59:05;;;;;;;9.58;4.00;;;;;;;2.11;94.20;97978.28;4264952;82;28604;-79
2021/01/12 15:05:08;;;;;;;24.70;6.78;;;;;;;2.18;94.42;97967.17;4281819;82;28584;-81
2021/01/12 15:11:10;;;;;;;24.60;6.25;;;;;;;2.17;97.36;97962.06;4266758;81;28632;-80
2021/01/12 15:17:12;;;;;;;15.32;5.33;;;;;;;2.15;95.94;97961.45;4265257;82;28583;-79
2021/01/12 15:23:15;;;;;;;14.03;5.47;;;;;;;2.10;98.62;97959.41;4313863;80;28603;-79
2021/01/12 15:29:18;;;;;;;13.15;5.92;;;;;;;2.05;99.35;97957.36;4224966;81;28639;-78
2021/01/12 15:35:20;;;;;;;16.20;6.17;;;;;;;2.07;100.00;97956.64;4253756;81;28608;-79
2021/01/12 15:41:22;;;;;;;17.12;6.22;;;;;;;2.04;100.00;97946.45;4325506;80;28607;-80
2021/01/12 15:47:25;;;;;;;12.68;5.85;;;;;;;2.09;100.00;97942.70;4250580;81;28580;-80
2021/01/12 15:53:28;;;;;;;10.43;4.90;;;;;;;2.27;100.00;97927.99;4319586;80;28530;-81
2021/01/12 15:59:30;;;;;;;12.07;5.30;;;;;;;2.35;100.00;97930.97;4260549;81;28551;-80
2021/01/12 16:05:32;;;;;;;10.90;4.95;;;;;;;2.45;100.00;97927.39;4315066;80;28682;-80
2021/01/12 16:11:38;;;;;;;11.88;5.08;;;;;;;2.47;100.00;97918.70;4258598;81;28620;-81
2021/01/12 16:17:43;;;;;;;11.23;4.97;;;;;;;2.49;100.00;97925.11;4312966;80;28588;-79
2021/01/12 16:23:46;;;;;;;11.63;4.45;;;;;;;2.41;100.00;97915.54;4229806;81;28633;-80
2021/01/12 16:29:51;;;;;;;8.15;4.00;;;;;;;2.44;100.00;97915.13;4310234;80;28642;-78
2021/01/12 16:35:57;;;;;;;10.17;4.37;;;;;;;2.46;100.00;97917.58;4251000;81;28608;-80
2021/01/12 16:42:02;;;;;;;11.22;4.92;;;;;;;2.40;100.00;97921.07;4247504;82;38990;-74
2021/01/12 16:48:14;;;;;;;11.22;5.72;;;;;;;2.26;100.00;97921.06;4239083;83;28583;-78
2021/01/12 16:54:13;;;;;;;12.93;5.25;;;;;;;2.17;100.00;97907.20;4348060;80;28551;-76
2021/01/12 17:00:17;;;;;;;12.47;5.20;;;;;;;2.11;100.00;97907.20;4308004;81;28576;-78
2021/01/12 17:06:21;;;;;;;11.03;4.57;;;;;;;2.10;100.00;97902.40;4321558;81;28589;-75
2021/01/12 17:12:26;;;;;;;12.93;5.37;;;;;;;2.00;100.00;97897.52;4232829;83;28553;-73
2021/01/12 17:18:34;;;;;;;12.60;5.47;;;;;;;1.98;100.00;97902.21;4236835;81;28678;-73
2021/01/12 17:24:40;;;;;;;12.03;4.97;;;;;;;1.96;100.00;97902.91;4318993;80;28635;-74
2021/01/12 17:30:46;;;;;;;11.90;5.22;;;;;;;1.94;100.00;97900.47;4313161;81;28558;-73
2021/01/12 17:36:51;;;;;;;14.13;5.37;;;;;;;1.85;100.00;97898.20;4265029;81;28571;-73
2021/01/12 17:43:16;;;;;;;9.93;4.97;;;;;;;1.86;100.00;97892.72;4439947;79;58262;-74
2021/01/12 17:49:20;;;;;;;11.40;4.80;;;;;;;1.71;100.00;97892.06;4415926;80;28631;-73
2021/01/12 17:55:36;;;;;;;13.93;5.97;;;;;;;1.62;100.00;97889.64;4396163;80;28657;-73
2021/01/12 18:01:41;;;;;;;13.10;5.83;;;;;;;1.61;100.00;97881.87;4411301;80;28532;-74
2021/01/12 18:07:59;;;;;;;13.88;6.33;;;;;;;1.55;100.00;97888.80;4416084;80;28545;-74
2021/01/12 18:14:06;;;;;;;11.63;5.55;;;;;;;1.52;100.00;97886.03;4421210;79;28565;-74
2021/01/12 18:20:11;;;;;;;11.40;5.45;;;;;;;1.50;100.00;97884.59;4412034;80;28561;-74
2021/01/12 18:26:18;;;;;;;12.77;5.03;;;;;;;1.47;100.00;97885.84;4404121;80;28608;-73
2021/01/12 18:32:23;;;;;;;13.98;5.95;;;;;;;1.44;100.00;97882.24;4323324;81;28615;-75
2021/01/12 18:38:31;;;;;;;11.33;5.40;;;;;;;1.45;100.00;97883.88;4266694;81;28597;-74
2021/01/12 18:44:34;;;;;;;11.88;5.22;;;;;;;1.44;100.00;97874.82;4200488;84;28568;-76
2021/01/12 18:50:42;;;;;;;11.75;5.42;;;;;;;1.36;100.00;97868.69;4277491;82;28597;-76
2021/01/12 18:56:48;;;;;;;14.35;5.85;;;;;;;1.34;100.00;97865.42;4281495;83;28563;-76
2021/01/12 19:03:03;;;;;;;12.18;5.35;;;;;;;1.32;100.00;97856.05;4267262;81;28590;-78
2021/01/12 19:09:07;;;;;;;12.45;5.40;;;;;;;1.33;100.00;97866.44;4286013;81;28569;-79
2021/01/12 19:15:12;;;;;;;10.82;4.83;;;;;;;1.31;100.00;97855.24;4281877;82;43246;-87
2021/01/12 19:21:17;;;;;;;12.53;5.87;;;;;;;1.31;100.00;97851.27;4271921;82;43234;-82
2021/01/12 19:27:19;;;;;;;12.33;5.53;;;;;;;1.34;100.00;97851.35;4278559;81;28677;-83
2021/01/12 19:33:24;;;;;;;13.05;5.10;;;;;;;1.35;100.00;97846.36;4288163;82;28606;-86
2021/01/12 19:39:27;;;;;;;15.83;5.80;;;;;;;1.35;100.00;97844.55;4275962;82;28568;-85
2021/01/12 19:45:31;;;;;;;14.35;5.58;;;;;;;1.41;100.00;97850.87;4245254;83;28625;-81
2021/01/12 19:51:34;;;;;;;13.98;5.47;;;;;;;1.38;100.00;97862.67;4279494;81;28620;-85
2021/01/12 19:57:36;;;;;;;16.50;6.05;;;;;;;1.41;100.00;97864.11;4221553;83;28566;-79
2021/01/12 20:03:43;;;;;;;11.65;5.42;;;;;;;1.49;100.00;97865.75;4286660;81;28570;-82
2021/01/12 20:09:45;;;;;;;13.05;5.67;;;;;;;1.46;100.00;97859.53;4284154;81;28563;-81
2021/01/12 20:15:48;;;;;;;13.22;5.97;;;;;;;1.46;100.00;97858.21;4228097;83;43906;-73
2021/01/12 20:21:59;;;;;;;11.10;5.40;;;;;;;1.42;100.00;97856.99;4240708;83;28589;-75
2021/01/12 20:28:06;;;;;;;13.30;5.15;;;;;;;1.44;100.00;97854.95;4226845;83;28637;-73
2021/01/12 20:34:14;;;;;;;15.48;5.97;;;;;;;1.39;100.00;97864.30;4226973;83;28629;-77
2021/01/12 20:40:17;;;;;;;13.75;5.92;;;;;;;1.45;100.00;97864.00;4282178;82;43936;-77
2021/01/12 20:46:20;;;;;;;13.15;6.47;;;;;;;1.43;100.00;97869.22;4283072;83;28570;-78
2021/01/12 20:52:25;;;;;;;14.83;6.03;;;;;;;1.43;100.00;97861.27;4286648;82;28665;-81
2021/01/12 20:58:28;;;;;;;10.97;5.70;;;;;;;1.39;100.00;97859.53;4291624;83;28656;-80
2021/01/12 21:04:37;;;;;;;13.35;6.20;;;;;;;1.33;100.00;97865.61;4289939;83;43998;-79
2021/01/12 21:10:41;;;;;;;13.90;6.00;;;;;;;1.22;100.00;97867.83;4285568;83;43905;-82
2021/01/12 21:16:45;;;;;;;15.17;6.17;;;;;;;1.09;100.00;97873.09;4297405;82;28617;-80
2021/01/12 21:22:48;;;;;;;15.90;6.65;;;;;;;1.02;100.00;97870.92;4295109;83;28590;-84
2021/01/12 21:28:52;;;;;;;14.78;6.85;;;;;;;0.96;100.00;97875.17;4282690;83;28572;-79
2021/01/12 21:34:57;;;;;;;15.08;6.45;;;;;;;0.84;100.00;97874.94;4288476;83;43932;-81
2021/01/12 21:40:59;;;;;;;14.07;6.65;;;;;;;0.76;100.00;97877.74;4266470;83;28599;-81
2021/01/12 21:47:01;;;;;;;15.90;7.25;;;;;;;0.64;100.00;97873.02;4236788;82;43949;-80
2021/01/12 21:53:04;;;;;;;16.32;6.95;;;;;;;0.63;100.00;97874.52;4247387;82;43911;-82
2021/01/12 21:59:06;;;;;;;16.93;7.17;;;;;;;0.46;100.00;97870.85;4239012;82;43910;-81
2021/01/12 22:05:10;;;;;;;14.87;7.17;;;;;;;0.50;100.00;97864.67;4232328;83;28610;-81
2021/01/12 22:11:12;;;;;;;13.45;6.28;;;;;;;0.58;100.00;97867.16;4241429;83;28564;-80
2021/01/12 22:17:14;;;;;;;14.43;7.17;;;;;;;0.58;100.00;97866.37;4228074;83;43918;-80
2021/01/12 22:23:16;;;;;;;17.00;7.15;;;;;;;0.50;100.00;97862.86;4236606;82;28569;-81
2021/01/12 22:29:19;;;;;;;14.43;7.08;;;;;;;0.50;100.00;97865.50;4242435;82;28614;-81
2021/01/12 22:35:21;;;;;;;16.40;8.10;;;;;;;0.37;100.00;97860.14;4253615;82;43941;-81
2021/01/12 22:41:25;;;;;;;15.78;7.62;;;;;;;0.49;100.00;97859.91;4275268;82;28564;-81
2021/01/12 22:47:28;;;;;;;17.73;8.25;;;;;;;0.49;100.00;97859.08;4271360;83;28967;-82
2021/01/12 22:53:30;;;;;;;15.95;8.43;;;;;;;0.37;100.00;97852.21;4293085;83;28667;-81
2021/01/12 22:59:33;;;;;;;16.52;8.00;;;;;;;0.43;100.00;97855.38;4302647;83;44001;-81
2021/01/12 23:05:35;;;;;;;18.85;8.65;;;;;;;0.36;100.00;97855.84;4291429;83;28648;-81
2021/01/12 23:11:37;;;;;;;19.00;9.48;;;;;;;0.29;100.00;97860.29;4298683;83;43964;-80
2021/01/12 23:17:40;;;;;;;20.70;9.20;;;;;;;0.36;100.00;97851.87;4303061;83;43905;-80
2021/01/12 23:23:42;;;;;;;18.35;8.70;;;;;;;0.29;100.00;97859.77;4304071;82;43964;-80
2021/01/12 23:29:45;;;;;;;20.25;9.28;;;;;;;0.32;100.00;97854.61;4303191;82;43928;-82
2021/01/12 23:35:47;;;;;;;18.00;7.83;;;;;;;0.28;100.00;97855.50;4295889;83;43933;-80
2021/01/12 23:41:49;;;;;;;17.32;9.13;;;;;;;0.39;100.00;97840.93;4271852;83;43929;-79
2021/01/12 23:47:52;;;;;;;18.32;7.87;;;;;;;0.34;100.00;97846.80;4285194;83;28597;-80
2021/01/12 23:53:54;;;;;;;19.23;8.58;;;;;;;0.46;100.00;97850.22;4275224;83;43944;-81
2021/01/12 23:59:57;;;;;;;14.83;7.53;;;;;;;0.36;100.00;97839.98;4287311;82;43901;-81
